sensor_id;sensor_type;location;lat;lon;timestamp;pressure;altitude;pressure_sealevel;temperature;humidity
62847;BME280;49477;35.676;139.586;2023-06-14T00:02:21;100235.89;;;30.59;45.38
62847;BME280;49477;35.676;139.586;2023-06-14T00:04:51;100237.50;;;30.65;45.21
62847;BME280;49477;35.676;139.586;2023-06-14T00:07:32;100238.19;;;30.91;44.85
62847;BME280;49477;35.676;139.586;2023-06-14T00:10:02;100237.80;;;31.17;44.86
62847;BME280;49477;35.676;139.586;2023-06-14T00:12:32;100238.12;;;31.04;44.56
62847;BME280;49477;35.676;139.586;2023-06-14T00:15:01;100236.51;;;30.87;45.09
62847;BME280;49477;35.676;139.586;2023-06-14T00:17:31;100237.11;;;30.77;45.19
62847;BME280;49477;35.676;139.586;2023-06-14T00:20:01;100239.78;;;31.08;44.56
62847;BME280;49477;35.676;139.586;2023-06-14T00:22:31;100244.89;;;30.78;44.56
62847;BME280;49477;35.676;139.586;2023-06-14T00:25:01;100249.24;;;31.10;44.36
62847;BME280;49477;35.676;139.586;2023-06-14T00:27:30;100249.38;;;31.10;44.49
62847;BME280;49477;35.676;139.586;2023-06-14T00:29:59;100241.16;;;31.20;44.33
62847;BME280;49477;35.676;139.586;2023-06-14T00:32:28;100239.70;;;31.29;44.27
62847;BME280;49477;35.676;139.586;2023-06-14T00:34:57;100234.30;;;31.32;44.10
62847;BME280;49477;35.676;139.586;2023-06-14T00:37:26;100233.84;;;30.98;44.84
62847;BME280;49477;35.676;139.586;2023-06-14T00:39:56;100237.79;;;31.08;44.66
62847;BME280;49477;35.676;139.586;2023-06-14T00:42:26;100235.75;;;31.09;44.61
62847;BME280;49477;35.676;139.586;2023-06-14T00:44:55;100231.52;;;31.27;44.13
62847;BME280;49477;35.676;139.586;2023-06-14T00:47:25;100228.47;;;31.34;44.10
62847;BME280;49477;35.676;139.586;2023-06-14T00:49:54;100226.97;;;31.39;43.98
62847;BME280;49477;35.676;139.586;2023-06-14T00:52:24;100231.28;;;31.35;44.07
62847;BME280;49477;35.676;139.586;2023-06-14T00:54:53;100230.88;;;31.14;44.00
62847;BME280;49477;35.676;139.586;2023-06-14T00:57:23;100227.91;;;31.40;44.07
62847;BME280;49477;35.676;139.586;2023-06-14T00:59:53;100226.97;;;31.48;44.07
62847;BME280;49477;35.676;139.586;2023-06-14T01:02:22;100229.98;;;31.53;44.04
62847;BME280;49477;35.676;139.586;2023-06-14T01:04:52;100234.37;;;31.46;44.00
62847;BME280;49477;35.676;139.586;2023-06-14T01:07:29;100236.69;;;31.47;44.03
62847;BME280;49477;35.676;139.586;2023-06-14T01:10:17;100236.31;;;31.54;43.99
62847;BME280;49477;35.676;139.586;2023-06-14T01:12:55;100234.25;;;31.16;44.45
62847;BME280;49477;35.676;139.586;2023-06-14T01:15:28;100236.71;;;31.31;44.05
62847;BME280;49477;35.676;139.586;2023-06-14T01:17:58;100229.85;;;31.63;43.93
62847;BME280;49477;35.676;139.586;2023-06-14T01:20:30;100219.59;;;31.64;43.97
62847;BME280;49477;35.676;139.586;2023-06-14T01:23:00;100215.15;;;31.38;44.01
62847;BME280;49477;35.676;139.586;2023-06-14T01:25:30;100214.56;;;31.41;43.99
62847;BME280;49477;35.676;139.586;2023-06-14T01:28:02;100217.19;;;31.79;43.86
62847;BME280;49477;35.676;139.586;2023-06-14T01:30:32;100222.84;;;31.54;43.77
62847;BME280;49477;35.676;139.586;2023-06-14T01:33:01;100221.84;;;31.60;43.57
62847;BME280;49477;35.676;139.586;2023-06-14T01:35:30;100213.34;;;31.83;43.58
62847;BME280;49477;35.676;139.586;2023-06-14T01:38:01;100212.40;;;31.54;43.56
62847;BME280;49477;35.676;139.586;2023-06-14T01:40:32;100208.92;;;31.67;43.40
62847;BME280;49477;35.676;139.586;2023-06-14T01:43:04;100209.00;;;31.64;43.46
62847;BME280;49477;35.676;139.586;2023-06-14T01:45:35;100214.14;;;31.46;43.37
62847;BME280;49477;35.676;139.586;2023-06-14T01:48:06;100212.36;;;32.00;43.28
62847;BME280;49477;35.676;139.586;2023-06-14T01:50:35;100214.94;;;31.63;43.07
62847;BME280;49477;35.676;139.586;2023-06-14T01:53:06;100215.75;;;31.79;43.13
62847;BME280;49477;35.676;139.586;2023-06-14T01:55:36;100216.55;;;31.41;43.05
62847;BME280;49477;35.676;139.586;2023-06-14T01:58:06;100218.06;;;31.70;43.11
62847;BME280;49477;35.676;139.586;2023-06-14T02:00:35;100211.89;;;31.32;42.83
62847;BME280;49477;35.676;139.586;2023-06-14T02:03:04;100201.10;;;31.64;42.42
62847;BME280;49477;35.676;139.586;2023-06-14T02:05:33;100196.08;;;31.19;42.32
62847;BME280;49477;35.676;139.586;2023-06-14T02:08:03;100194.22;;;31.61;42.41
62847;BME280;49477;35.676;139.586;2023-06-14T02:10:32;100191.35;;;31.64;42.44
62847;BME280;49477;35.676;139.586;2023-06-14T02:13:02;100185.42;;;32.10;42.53
62847;BME280;49477;35.676;139.586;2023-06-14T02:15:31;100181.57;;;31.88;42.52
62847;BME280;49477;35.676;139.586;2023-06-14T02:18:00;100183.21;;;31.98;42.44
62847;BME280;49477;35.676;139.586;2023-06-14T02:20:30;100178.41;;;31.72;42.56
62847;BME280;49477;35.676;139.586;2023-06-14T02:23:00;100175.68;;;31.77;42.49
62847;BME280;49477;35.676;139.586;2023-06-14T02:25:30;100176.21;;;31.78;42.54
62847;BME280;49477;35.676;139.586;2023-06-14T02:27:59;100176.74;;;31.72;42.68
62847;BME280;49477;35.676;139.586;2023-06-14T02:30:31;100174.90;;;31.99;42.65
62847;BME280;49477;35.676;139.586;2023-06-14T02:33:00;100171.21;;;32.03;42.59
62847;BME280;49477;35.676;139.586;2023-06-14T02:35:31;100172.05;;;32.08;42.51
62847;BME280;49477;35.676;139.586;2023-06-14T02:38:05;100182.06;;;31.79;42.62
62847;BME280;49477;35.676;139.586;2023-06-14T02:40:34;100187.98;;;31.79;42.79
62847;BME280;49477;35.676;139.586;2023-06-14T02:43:04;100187.34;;;31.79;42.81
62847;BME280;49477;35.676;139.586;2023-06-14T02:45:33;100186.40;;;31.76;43.09
62847;BME280;49477;35.676;139.586;2023-06-14T02:48:02;100185.99;;;32.01;43.04
62847;BME280;49477;35.676;139.586;2023-06-14T02:50:33;100186.78;;;32.08;43.02
62847;BME280;49477;35.676;139.586;2023-06-14T02:53:07;100187.22;;;31.84;43.73
62847;BME280;49477;35.676;139.586;2023-06-14T02:55:37;100181.47;;;31.90;43.47
62847;BME280;49477;35.676;139.586;2023-06-14T02:58:06;100178.91;;;32.03;43.66
62847;BME280;49477;35.676;139.586;2023-06-14T03:00:40;100174.61;;;31.79;44.07
62847;BME280;49477;35.676;139.586;2023-06-14T03:03:09;100171.17;;;32.12;43.68
62847;BME280;49477;35.676;139.586;2023-06-14T03:05:40;100171.22;;;31.86;44.10
62847;BME280;49477;35.676;139.586;2023-06-14T03:08:09;100167.50;;;31.95;43.71
62847;BME280;49477;35.676;139.586;2023-06-14T03:10:38;100168.46;;;31.84;44.08
62847;BME280;49477;35.676;139.586;2023-06-14T03:13:08;100164.74;;;32.11;44.02
62847;BME280;49477;35.676;139.586;2023-06-14T03:15:37;100168.35;;;31.70;44.14
62847;BME280;49477;35.676;139.586;2023-06-14T03:18:07;100168.38;;;31.91;43.94
62847;BME280;49477;35.676;139.586;2023-06-14T03:20:37;100170.85;;;31.38;43.94
62847;BME280;49477;35.676;139.586;2023-06-14T03:23:06;100170.15;;;32.15;43.47
62847;BME280;49477;35.676;139.586;2023-06-14T03:25:36;100163.91;;;31.83;43.53
62847;BME280;49477;35.676;139.586;2023-06-14T03:28:06;100161.44;;;32.04;43.54
62847;BME280;49477;35.676;139.586;2023-06-14T03:30:35;100164.57;;;32.06;43.44
62847;BME280;49477;35.676;139.586;2023-06-14T03:33:04;100161.95;;;31.84;43.40
62847;BME280;49477;35.676;139.586;2023-06-14T03:35:34;100159.47;;;31.39;43.14
62847;BME280;49477;35.676;139.586;2023-06-14T03:38:03;100157.76;;;31.94;43.08
62847;BME280;49477;35.676;139.586;2023-06-14T03:40:33;100153.80;;;31.96;42.92
62847;BME280;49477;35.676;139.586;2023-06-14T03:43:02;100154.70;;;31.86;42.80
62847;BME280;49477;35.676;139.586;2023-06-14T03:45:32;100147.33;;;32.00;42.53
62847;BME280;49477;35.676;139.586;2023-06-14T03:48:01;100143.80;;;32.24;42.50
62847;BME280;49477;35.676;139.586;2023-06-14T03:50:31;100139.41;;;32.28;42.41
62847;BME280;49477;35.676;139.586;2023-06-14T03:53:02;100135.25;;;32.32;42.35
62847;BME280;49477;35.676;139.586;2023-06-14T03:55:31;100126.55;;;32.32;42.24
62847;BME280;49477;35.676;139.586;2023-06-14T03:58:00;100118.81;;;32.37;42.12
62847;BME280;49477;35.676;139.586;2023-06-14T04:00:31;100110.54;;;32.33;42.10
62847;BME280;49477;35.676;139.586;2023-06-14T04:03:00;100105.53;;;32.14;41.99
62847;BME280;49477;35.676;139.586;2023-06-14T04:05:31;100105.69;;;32.37;41.94
62847;BME280;49477;35.676;139.586;2023-06-14T04:08:01;100107.55;;;32.24;41.75
62847;BME280;49477;35.676;139.586;2023-06-14T04:10:32;100105.86;;;32.34;41.40
62847;BME280;49477;35.676;139.586;2023-06-14T04:13:02;100104.99;;;32.19;41.49
62847;BME280;49477;35.676;139.586;2023-06-14T04:15:31;100106.91;;;32.45;41.17
62847;BME280;49477;35.676;139.586;2023-06-14T04:18:01;100106.31;;;32.42;41.06
62847;BME280;49477;35.676;139.586;2023-06-14T04:20:31;100102.11;;;32.36;41.27
62847;BME280;49477;35.676;139.586;2023-06-14T04:23:12;100105.82;;;32.15;41.36
62847;BME280;49477;35.676;139.586;2023-06-14T04:25:42;100107.69;;;32.12;41.57
62847;BME280;49477;35.676;139.586;2023-06-14T04:28:11;100111.03;;;32.07;41.70
62847;BME280;49477;35.676;139.586;2023-06-14T04:30:42;100122.34;;;32.01;41.42
62847;BME280;49477;35.676;139.586;2023-06-14T04:33:12;100123.35;;;31.97;41.57
62847;BME280;49477;35.676;139.586;2023-06-14T04:35:41;100122.89;;;32.05;41.49
62847;BME280;49477;35.676;139.586;2023-06-14T04:38:10;100126.75;;;31.68;41.36
62847;BME280;49477;35.676;139.586;2023-06-14T04:40:40;100125.01;;;32.13;41.13
62847;BME280;49477;35.676;139.586;2023-06-14T04:43:10;100121.54;;;32.16;41.30
62847;BME280;49477;35.676;139.586;2023-06-14T04:45:40;100114.54;;;32.22;41.16
62847;BME280;49477;35.676;139.586;2023-06-14T04:48:09;100108.04;;;31.92;41.25
62847;BME280;49477;35.676;139.586;2023-06-14T04:50:39;100105.82;;;31.98;41.05
62847;BME280;49477;35.676;139.586;2023-06-14T04:53:08;100099.20;;;31.97;41.08
62847;BME280;49477;35.676;139.586;2023-06-14T04:55:38;100106.08;;;32.05;41.09
62847;BME280;49477;35.676;139.586;2023-06-14T04:58:07;100110.28;;;32.16;41.06
62847;BME280;49477;35.676;139.586;2023-06-14T05:00:38;100111.09;;;31.89;40.93
62847;BME280;49477;35.676;139.586;2023-06-14T05:03:07;100113.30;;;31.94;40.93
62847;BME280;49477;35.676;139.586;2023-06-14T05:05:36;100115.13;;;32.21;40.84
62847;BME280;49477;35.676;139.586;2023-06-14T05:08:06;100116.81;;;32.15;41.06
62847;BME280;49477;35.676;139.586;2023-06-14T05:10:35;100116.75;;;32.19;41.09
62847;BME280;49477;35.676;139.586;2023-06-14T05:13:05;100114.68;;;32.17;41.05
62847;BME280;49477;35.676;139.586;2023-06-14T05:15:34;100111.14;;;31.48;40.70
62847;BME280;49477;35.676;139.586;2023-06-14T05:18:04;100105.14;;;31.46;41.57
62847;BME280;49477;35.676;139.586;2023-06-14T05:20:33;100099.53;;;31.57;41.50
62847;BME280;49477;35.676;139.586;2023-06-14T05:23:02;100101.57;;;31.51;41.97
62847;BME280;49477;35.676;139.586;2023-06-14T05:25:32;100097.16;;;31.82;41.50
62847;BME280;49477;35.676;139.586;2023-06-14T05:28:01;100098.84;;;32.02;41.14
62847;BME280;49477;35.676;139.586;2023-06-14T05:30:31;100099.06;;;32.15;41.11
62847;BME280;49477;35.676;139.586;2023-06-14T05:33:00;100097.68;;;31.87;41.06
62847;BME280;49477;35.676;139.586;2023-06-14T05:35:36;100090.19;;;31.79;40.79
62847;BME280;49477;35.676;139.586;2023-06-14T05:38:05;100085.11;;;32.03;40.72
62847;BME280;49477;35.676;139.586;2023-06-14T05:40:35;100082.85;;;31.69;40.87
62847;BME280;49477;35.676;139.586;2023-06-14T05:43:04;100080.80;;;31.78;40.68
62847;BME280;49477;35.676;139.586;2023-06-14T05:45:34;100080.92;;;31.57;40.59
62847;BME280;49477;35.676;139.586;2023-06-14T05:48:04;100070.26;;;31.78;40.15
62847;BME280;49477;35.676;139.586;2023-06-14T05:50:33;100062.52;;;31.87;40.15
62847;BME280;49477;35.676;139.586;2023-06-14T05:53:02;100064.37;;;31.82;40.11
62847;BME280;49477;35.676;139.586;2023-06-14T05:55:31;100067.01;;;32.13;40.17
62847;BME280;49477;35.676;139.586;2023-06-14T05:58:01;100064.74;;;31.86;40.41
62847;BME280;49477;35.676;139.586;2023-06-14T06:00:32;100065.33;;;32.11;40.44
62847;BME280;49477;35.676;139.586;2023-06-14T06:03:01;100068.87;;;31.84;40.18
62847;BME280;49477;35.676;139.586;2023-06-14T06:05:31;100072.34;;;31.79;40.25
62847;BME280;49477;35.676;139.586;2023-06-14T06:08:00;100073.92;;;31.67;40.10
62847;BME280;49477;35.676;139.586;2023-06-14T06:10:31;100076.24;;;31.69;39.92
62847;BME280;49477;35.676;139.586;2023-06-14T06:13:00;100079.53;;;32.02;40.09
62847;BME280;49477;35.676;139.586;2023-06-14T06:15:31;100079.78;;;31.69;40.42
62847;BME280;49477;35.676;139.586;2023-06-14T06:18:02;100077.55;;;31.88;40.20
62847;BME280;49477;35.676;139.586;2023-06-14T06:20:31;100077.92;;;31.99;40.14
62847;BME280;49477;35.676;139.586;2023-06-14T06:23:00;100084.10;;;31.85;39.96
62847;BME280;49477;35.676;139.586;2023-06-14T06:25:30;100089.07;;;31.94;40.18
62847;BME280;49477;35.676;139.586;2023-06-14T06:27:59;100092.26;;;31.99;39.98
62847;BME280;49477;35.676;139.586;2023-06-14T06:30:30;100092.79;;;31.91;40.18
62847;BME280;49477;35.676;139.586;2023-06-14T06:33:01;100095.26;;;31.72;40.15
62847;BME280;49477;35.676;139.586;2023-06-14T06:35:31;100098.33;;;31.80;40.19
62847;BME280;49477;35.676;139.586;2023-06-14T06:38:01;100099.88;;;31.79;39.85
62847;BME280;49477;35.676;139.586;2023-06-14T06:40:30;100098.45;;;31.23;39.83
62847;BME280;49477;35.676;139.586;2023-06-14T06:42:59;100095.76;;;31.51;39.91
62847;BME280;49477;35.676;139.586;2023-06-14T06:45:29;100089.88;;;31.59;40.26
62847;BME280;49477;35.676;139.586;2023-06-14T06:47:58;100087.44;;;31.38;40.83
62847;BME280;49477;35.676;139.586;2023-06-14T06:50:29;100081.78;;;31.45;40.74
62847;BME280;49477;35.676;139.586;2023-06-14T06:52:59;100075.62;;;31.99;40.79
62847;BME280;49477;35.676;139.586;2023-06-14T06:55:28;100069.91;;;31.54;40.92
62847;BME280;49477;35.676;139.586;2023-06-14T06:57:58;100075.82;;;31.91;40.90
62847;BME280;49477;35.676;139.586;2023-06-14T07:00:27;100077.79;;;31.61;40.96
62847;BME280;49477;35.676;139.586;2023-06-14T07:02:57;100074.11;;;31.76;40.97
62847;BME280;49477;35.676;139.586;2023-06-14T07:05:26;100068.57;;;31.61;41.04
62847;BME280;49477;35.676;139.586;2023-06-14T07:07:57;100065.44;;;31.18;40.89
62847;BME280;49477;35.676;139.586;2023-06-14T07:10:26;100063.17;;;31.47;41.08
62847;BME280;49477;35.676;139.586;2023-06-14T07:12:55;100063.00;;;31.52;40.68
62847;BME280;49477;35.676;139.586;2023-06-14T07:15:25;100061.03;;;31.91;40.66
62847;BME280;49477;35.676;139.586;2023-06-14T07:17:54;100055.31;;;31.31;40.60
62847;BME280;49477;35.676;139.586;2023-06-14T07:20:24;100044.78;;;31.50;40.38
62847;BME280;49477;35.676;139.586;2023-06-14T07:22:53;100039.45;;;31.77;40.05
62847;BME280;49477;35.676;139.586;2023-06-14T07:25:23;100035.29;;;31.43;39.95
62847;BME280;49477;35.676;139.586;2023-06-14T07:27:53;100038.41;;;31.51;39.76
62847;BME280;49477;35.676;139.586;2023-06-14T07:30:22;100036.56;;;32.03;39.72
62847;BME280;49477;35.676;139.586;2023-06-14T07:32:51;100034.89;;;31.73;39.07
62847;BME280;49477;35.676;139.586;2023-06-14T07:35:20;100041.17;;;31.62;38.88
62847;BME280;49477;35.676;139.586;2023-06-14T07:37:50;100042.99;;;31.53;39.26
62847;BME280;49477;35.676;139.586;2023-06-14T07:40:19;100033.71;;;31.86;38.85
62847;BME280;49477;35.676;139.586;2023-06-14T07:42:49;100030.57;;;31.50;38.49
62847;BME280;49477;35.676;139.586;2023-06-14T07:45:19;100036.29;;;31.51;38.28
62847;BME280;49477;35.676;139.586;2023-06-14T07:47:48;100038.82;;;31.68;38.40
62847;BME280;49477;35.676;139.586;2023-06-14T07:50:17;100032.06;;;31.90;38.54
62847;BME280;49477;35.676;139.586;2023-06-14T07:52:47;100029.28;;;31.84;38.52
62847;BME280;49477;35.676;139.586;2023-06-14T07:55:16;100028.47;;;31.82;38.53
62847;BME280;49477;35.676;139.586;2023-06-14T07:57:46;100033.32;;;31.79;38.29
62847;BME280;49477;35.676;139.586;2023-06-14T08:00:16;100043.38;;;31.96;38.69
62847;BME280;49477;35.676;139.586;2023-06-14T08:02:46;100046.45;;;31.60;38.10
62847;BME280;49477;35.676;139.586;2023-06-14T08:05:15;100043.39;;;31.73;38.34
62847;BME280;49477;35.676;139.586;2023-06-14T08:07:44;100053.74;;;31.78;38.53
62847;BME280;49477;35.676;139.586;2023-06-14T08:10:14;100058.55;;;31.88;38.70
62847;BME280;49477;35.676;139.586;2023-06-14T08:12:44;100060.46;;;31.80;37.96
62847;BME280;49477;35.676;139.586;2023-06-14T08:15:13;100058.15;;;32.00;37.44
62847;BME280;49477;35.676;139.586;2023-06-14T08:17:44;100057.09;;;31.86;38.02
62847;BME280;49477;35.676;139.586;2023-06-14T08:20:13;100056.83;;;31.73;38.45
62847;BME280;49477;35.676;139.586;2023-06-14T08:22:42;100056.35;;;31.69;38.06
62847;BME280;49477;35.676;139.586;2023-06-14T08:25:13;100053.71;;;31.44;38.27
62847;BME280;49477;35.676;139.586;2023-06-14T08:27:42;100041.80;;;31.59;38.32
62847;BME280;49477;35.676;139.586;2023-06-14T08:30:13;100033.26;;;31.87;38.22
62847;BME280;49477;35.676;139.586;2023-06-14T08:32:42;100027.91;;;31.68;38.33
62847;BME280;49477;35.676;139.586;2023-06-14T08:35:11;100026.46;;;31.72;37.89
62847;BME280;49477;35.676;139.586;2023-06-14T08:37:41;100030.64;;;31.65;38.23
62847;BME280;49477;35.676;139.586;2023-06-14T08:40:19;100036.80;;;31.80;38.50
62847;BME280;49477;35.676;139.586;2023-06-14T08:42:52;100045.45;;;31.55;38.18
62847;BME280;49477;35.676;139.586;2023-06-14T08:45:22;100052.32;;;31.86;37.58
62847;BME280;49477;35.676;139.586;2023-06-14T08:47:52;100055.79;;;31.79;38.43
62847;BME280;49477;35.676;139.586;2023-06-14T08:50:23;100055.14;;;31.74;37.60
62847;BME280;49477;35.676;139.586;2023-06-14T08:52:56;100052.70;;;31.58;38.26
62847;BME280;49477;35.676;139.586;2023-06-14T08:55:26;100052.93;;;32.17;38.70
62847;BME280;49477;35.676;139.586;2023-06-14T08:57:57;100062.63;;;31.84;38.58
62847;BME280;49477;35.676;139.586;2023-06-14T09:00:28;100081.54;;;31.76;38.27
62847;BME280;49477;35.676;139.586;2023-06-14T09:03:03;100087.92;;;31.82;38.31
62847;BME280;49477;35.676;139.586;2023-06-14T09:05:33;100087.68;;;31.62;38.35
62847;BME280;49477;35.676;139.586;2023-06-14T09:08:02;100086.65;;;31.61;38.04
62847;BME280;49477;35.676;139.586;2023-06-14T09:10:32;100085.51;;;31.46;38.62
62847;BME280;49477;35.676;139.586;2023-06-14T09:13:02;100082.33;;;31.75;38.53
62847;BME280;49477;35.676;139.586;2023-06-14T09:15:32;100078.07;;;31.69;38.44
62847;BME280;49477;35.676;139.586;2023-06-14T09:18:03;100073.80;;;31.89;38.86
62847;BME280;49477;35.676;139.586;2023-06-14T09:20:32;100076.88;;;31.33;38.45
62847;BME280;49477;35.676;139.586;2023-06-14T09:23:02;100085.09;;;31.51;38.99
62847;BME280;49477;35.676;139.586;2023-06-14T09:25:33;100087.07;;;31.53;39.00
62847;BME280;49477;35.676;139.586;2023-06-14T09:28:10;100087.82;;;31.56;38.65
62847;BME280;49477;35.676;139.586;2023-06-14T09:30:40;100092.33;;;31.25;38.77
62847;BME280;49477;35.676;139.586;2023-06-14T09:33:09;100101.43;;;31.38;39.20
62847;BME280;49477;35.676;139.586;2023-06-14T09:35:39;100114.81;;;30.91;38.66
62847;BME280;49477;35.676;139.586;2023-06-14T09:38:08;100127.02;;;30.76;38.88
62847;BME280;49477;35.676;139.586;2023-06-14T09:40:38;100137.31;;;31.13;39.26
62847;BME280;49477;35.676;139.586;2023-06-14T09:43:08;100140.36;;;30.89;38.91
62847;BME280;49477;35.676;139.586;2023-06-14T09:45:37;100130.35;;;30.93;39.08
62847;BME280;49477;35.676;139.586;2023-06-14T09:48:09;100124.43;;;31.15;39.26
62847;BME280;49477;35.676;139.586;2023-06-14T09:50:39;100125.73;;;30.69;39.58
62847;BME280;49477;35.676;139.586;2023-06-14T09:53:13;100128.18;;;31.07;39.77
62847;BME280;49477;35.676;139.586;2023-06-14T09:55:43;100132.61;;;31.24;39.85
62847;BME280;49477;35.676;139.586;2023-06-14T09:58:14;100136.44;;;30.96;39.72
62847;BME280;49477;35.676;139.586;2023-06-14T10:00:43;100141.98;;;30.99;40.21
62847;BME280;49477;35.676;139.586;2023-06-14T10:03:18;100150.89;;;31.07;40.30
62847;BME280;49477;35.676;139.586;2023-06-14T10:05:49;100151.07;;;30.84;40.33
62847;BME280;49477;35.676;139.586;2023-06-14T10:08:23;100150.27;;;31.03;40.39
62847;BME280;49477;35.676;139.586;2023-06-14T10:10:56;100148.62;;;31.05;40.44
62847;BME280;49477;35.676;139.586;2023-06-14T10:13:28;100140.37;;;31.11;40.49
62847;BME280;49477;35.676;139.586;2023-06-14T10:16:07;100134.96;;;31.00;40.67
62847;BME280;49477;35.676;139.586;2023-06-14T10:18:45;100130.21;;;31.01;40.74
62847;BME280;49477;35.676;139.586;2023-06-14T10:21:23;100124.67;;;31.17;40.63
62847;BME280;49477;35.676;139.586;2023-06-14T10:23:59;100112.57;;;30.81;40.76
62847;BME280;49477;35.676;139.586;2023-06-14T10:26:30;100099.92;;;31.00;41.02
62847;BME280;49477;35.676;139.586;2023-06-14T10:29:01;100096.65;;;30.95;41.06
62847;BME280;49477;35.676;139.586;2023-06-14T10:31:45;100096.05;;;30.74;41.06
62847;BME280;49477;35.676;139.586;2023-06-14T10:34:23;100103.38;;;31.05;41.30
62847;BME280;49477;35.676;139.586;2023-06-14T10:37:13;100102.68;;;30.90;41.22
62847;BME280;49477;35.676;139.586;2023-06-14T10:39:44;100099.91;;;30.95;41.28
62847;BME280;49477;35.676;139.586;2023-06-14T10:42:14;100104.11;;;30.90;41.41
62847;BME280;49477;35.676;139.586;2023-06-14T10:44:45;100103.34;;;30.33;41.71
62847;BME280;49477;35.676;139.586;2023-06-14T10:47:27;100104.05;;;30.46;41.79
62847;BME280;49477;35.676;139.586;2023-06-14T10:50:02;100114.92;;;30.73;42.75
62847;BME280;49477;35.676;139.586;2023-06-14T10:52:34;100120.68;;;31.05;42.52
62847;BME280;49477;35.676;139.586;2023-06-14T10:55:09;100125.92;;;30.85;42.71
62847;BME280;49477;35.676;139.586;2023-06-14T10:57:38;100133.39;;;30.72;43.07
62847;BME280;49477;35.676;139.586;2023-06-14T11:00:10;100137.60;;;30.50;42.93
62847;BME280;49477;35.676;139.586;2023-06-14T11:02:52;100146.01;;;30.35;43.45
62847;BME280;49477;35.676;139.586;2023-06-14T11:05:26;100152.56;;;30.65;43.54
62847;BME280;49477;35.676;139.586;2023-06-14T11:08:08;100152.89;;;30.36;43.54
62847;BME280;49477;35.676;139.586;2023-06-14T11:10:42;100144.55;;;30.75;43.57
62847;BME280;49477;35.676;139.586;2023-06-14T11:13:12;100147.67;;;30.41;43.57
62847;BME280;49477;35.676;139.586;2023-06-14T11:15:48;100154.80;;;30.74;43.54
62847;BME280;49477;35.676;139.586;2023-06-14T11:18:17;100148.73;;;30.26;43.50
62847;BME280;49477;35.676;139.586;2023-06-14T11:20:48;100149.34;;;30.31;43.72
62847;BME280;49477;35.676;139.586;2023-06-14T11:23:17;100162.20;;;30.24;43.39
62847;BME280;49477;35.676;139.586;2023-06-14T11:25:51;100168.25;;;30.37;43.63
62847;BME280;49477;35.676;139.586;2023-06-14T11:28:20;100175.78;;;30.36;43.67
62847;BME280;49477;35.676;139.586;2023-06-14T11:30:52;100178.59;;;30.54;43.62
62847;BME280;49477;35.676;139.586;2023-06-14T11:33:29;100183.99;;;29.97;43.86
62847;BME280;49477;35.676;139.586;2023-06-14T11:36:01;100178.20;;;30.02;43.91
62847;BME280;49477;35.676;139.586;2023-06-14T11:38:34;100162.11;;;30.47;43.75
62847;BME280;49477;35.676;139.586;2023-06-14T11:41:03;100150.38;;;30.23;43.63
62847;BME280;49477;35.676;139.586;2023-06-14T11:43:33;100151.83;;;29.81;43.90
62847;BME280;49477;35.676;139.586;2023-06-14T11:46:03;100164.28;;;30.14;43.84
62847;BME280;49477;35.676;139.586;2023-06-14T11:48:41;100180.13;;;30.25;43.51
62847;BME280;49477;35.676;139.586;2023-06-14T11:51:10;100180.49;;;29.73;43.21
62847;BME280;49477;35.676;139.586;2023-06-14T11:53:46;100182.35;;;30.08;43.53
62847;BME280;49477;35.676;139.586;2023-06-14T11:56:16;100184.00;;;30.17;43.57
62847;BME280;49477;35.676;139.586;2023-06-14T11:58:46;100182.41;;;30.04;43.45
62847;BME280;49477;35.676;139.586;2023-06-14T12:01:17;100185.56;;;30.27;43.51
62847;BME280;49477;35.676;139.586;2023-06-14T12:03:50;100192.06;;;29.98;43.27
62847;BME280;49477;35.676;139.586;2023-06-14T12:06:28;100194.51;;;30.31;43.30
62847;BME280;49477;35.676;139.586;2023-06-14T12:08:58;100189.40;;;30.41;43.55
62847;BME280;49477;35.676;139.586;2023-06-14T12:11:34;100188.16;;;29.78;43.55
62847;BME280;49477;35.676;139.586;2023-06-14T12:14:05;100195.48;;;29.84;44.06
62847;BME280;49477;35.676;139.586;2023-06-14T12:16:37;100200.43;;;29.62;44.18
62847;BME280;49477;35.676;139.586;2023-06-14T12:19:14;100198.41;;;29.86;44.04
62847;BME280;49477;35.676;139.586;2023-06-14T12:21:46;100194.46;;;29.78;43.98
62847;BME280;49477;35.676;139.586;2023-06-14T12:24:16;100186.59;;;29.86;44.09
62847;BME280;49477;35.676;139.586;2023-06-14T12:26:45;100185.08;;;29.59;43.96
62847;BME280;49477;35.676;139.586;2023-06-14T12:29:15;100191.81;;;30.02;44.01
62847;BME280;49477;35.676;139.586;2023-06-14T12:31:44;100202.80;;;29.45;43.81
62847;BME280;49477;35.676;139.586;2023-06-14T12:34:13;100209.53;;;30.06;43.88
62847;BME280;49477;35.676;139.586;2023-06-14T12:36:43;100212.60;;;29.80;44.12
62847;BME280;49477;35.676;139.586;2023-06-14T12:39:12;100220.16;;;29.76;44.08
62847;BME280;49477;35.676;139.586;2023-06-14T12:41:42;100225.77;;;29.79;44.18
62847;BME280;49477;35.676;139.586;2023-06-14T12:44:12;100234.53;;;29.72;43.94
62847;BME280;49477;35.676;139.586;2023-06-14T12:46:43;100233.59;;;29.70;44.09
62847;BME280;49477;35.676;139.586;2023-06-14T12:49:13;100224.77;;;29.64;44.34